Latest Weather Observations for Gladstone

IDQ60801

Issued at 6:05 am EST Tuesday 23 September 2014 (issued every 30 minutes, with the page automatically refreshed every 10 minutes)

About weather observations | Map of weather stations | Latest weather observations for QLD | Other Formats
Station Details ID: 039123 Name: GLADSTONE RADAR Lat: -23.86 Lon: 151.26 Height: 74.5 m
Data from the previous 72 hours. | See also: Recent months at Gladstone
Date/Time
EST
Temp
°C
App
Temp
°C
Dew
Point
Rel
Hum
%
Delta-T
°C
Wind Press
QNH
hPa
Press
MSL
hPa
Rain
since 9 am
mm
Dir
 
Spd
km/h
Gust
km/h
Spd
kts
Gust
kts
23/06:00am 16.3 14.0 14.7 90 0.9 SE 20 28 11 15 1023.3 1023.0 25.0
23/05:30am 16.3 14.2 14.7 90 0.9 SSE 19 30 10 16 1023.0 1022.7 25.0
23/05:00am 16.0 13.9 14.7 92 0.7 SE 19 32 10 17 1022.9 1022.6 25.0
23/04:30am 16.0 13.7 14.7 92 0.7 SSE 20 28 11 15 1022.5 1022.2 25.0
23/04:00am 16.0 13.6 14.5 91 0.9 SSE 20 32 11 17 1022.1 1021.8 25.0
23/03:30am 15.9 13.5 14.4 91 0.9 SE 20 30 11 16 1021.9 1021.6 25.0
23/03:00am 16.0 13.3 14.5 91 0.9 SSE 22 32 12 17 1022.1 1021.8 25.0
23/02:30am 15.8 13.6 14.5 92 0.7 SSE 19 30 10 16 1022.0 1021.7 25.0
23/02:00am 15.8 13.7 14.8 94 0.6 SE 19 26 10 14 1022.3 1022.0 25.0
23/01:30am 15.9 14.3 14.9 94 0.6 SE 17 26 9 14 1022.9 1022.6 25.0
23/01:00am 16.3 15.3 15.7 96 0.4 SSE 15 24 8 13 1023.1 1022.8 24.4
23/12:30am 16.3 13.9 15.5 95 0.5 SE 22 32 12 17 1023.4 1023.1 24.4
23/12:00am 17.2 15.5 14.8 86 1.4 ESE 17 24 9 13 1023.7 1023.4 23.4
 
Date/Time
EST
Temp
°C
App
Temp
°C
Dew
Point
Rel
Hum
%
Delta-T
°C
Wind Press
QNH
hPa
Press
MSL
hPa
Rain
since 9 am
mm
Dir
 
Spd
km/h
Gust
km/h
Spd
kts
Gust
kts
22/11:30pm 17.5 15.3 15.0 85 1.5 SE 20 39 11 21 1023.7 1023.4 23.4
22/11:00pm 17.4 14.8 15.0 86 1.4 SE 22 32 12 17 1024.0 1023.7 23.4
22/10:30pm 17.0 14.1 15.2 89 1.0 SE 24 35 13 19 1024.0 1023.7 23.4
22/10:00pm 16.5 14.3 14.9 90 0.9 SE 20 28 11 15 1024.0 1023.7 23.4
22/09:30pm 17.4 14.3 14.5 83 1.7 ESE 24 39 13 21 1024.1 1023.8 22.8
22/09:00pm 17.7 14.4 14.0 79 2.1 SE 24 39 13 21 1024.1 1023.8 22.8
22/08:30pm 17.2 13.4 13.7 80 2.0 ESE 26 37 14 20 1023.7 1023.4 22.8
22/08:02pm 16.9 12.9 14.0 83 1.7 ESE 28 46 15 25 1023.7 1023.4 22.8
22/08:00pm 17.0 12.9 13.9 82 1.8 SE 28 43 15 23 1023.7 1023.4 22.8
22/07:30pm 17.2 12.9 14.3 83 1.7 ESE 30 54 16 29 1023.2 1022.9 22.8
22/07:03pm 18.1 10.1 14.6 80 2.0 ESE 50 69 27 37 1022.7 1022.4 22.8
22/07:00pm 18.1 8.8 14.6 80 2.0 ESE 57 69 31 37 1022.2 1021.9 22.8
22/06:51pm 17.7 12.8 15.3 86 1.4 ESE 35 54 19 29 1022.5 1022.2 22.8
22/06:30pm 17.4 14.2 15.4 88 1.2 ESE 26 41 14 22 1022.6 1022.3 22.8
22/06:06pm 17.3 13.5 14.6 84 1.6 ESE 28 46 15 25 1022.2 1021.9 22.8
22/06:00pm 17.1 13.2 14.4 84 1.5 ESE 28 41 15 22 1022.2 1021.9 22.8
22/05:32pm 16.7 13.3 15.9 95 0.5 ESE 28 54 15 29 1021.9 1021.6 22.6
22/05:30pm 16.7 13.7 15.9 95 0.5 ESE 26 44 14 24 1021.9 1021.6 22.6
22/05:07pm 16.5 13.2 16.0 97 0.3 ESE 28 50 15 27 1021.6 1021.3 22.6
22/05:00pm 16.5 13.1 15.9 96 0.4 ESE 28 41 15 22 1021.6 1021.3 22.6
22/04:30pm 16.4 12.2 16.1 98 0.2 SE 33 52 18 28 1021.0 1020.7 22.6
22/04:00pm 16.5 12.4 16.0 97 0.3 ESE 32 52 17 28 1020.8 1020.5 22.6
22/03:47pm 16.5 12.3 16.2 98 0.2 ESE 33 54 18 29 1020.5 1020.2 22.4
22/03:30pm 16.5 12.9 16.3 99 0.1 SE 30 46 16 25 1020.6 1020.3 22.0
22/03:22pm 16.3 13.0 16.1 99 0.1 SE 28 46 15 25 1020.8 1020.5 21.8
22/03:00pm 16.2 13.6 16.0 99 0.1 ESE 24 35 13 19 1021.2 1020.9 20.8
22/02:30pm 16.5 14.0 16.2 98 0.2 ESE 24 35 13 19 1021.2 1020.9 17.4
22/02:00pm 16.6 14.9 16.3 98 0.2 ESE 20 32 11 17 1021.3 1021.0 15.2
22/01:30pm 16.6 13.8 16.3 98 0.2 SE 26 39 14 21 1021.5 1021.2 14.4
22/01:20pm 16.5 13.3 16.3 99 0.1 SE 28 48 15 26 1021.5 1021.2 14.4
22/01:00pm 16.5 13.6 16.2 98 0.2 ESE 26 39 14 21 1021.9 1021.6 13.8
22/12:30pm 16.7 12.8 16.4 98 0.2 ESE 32 48 17 26 1022.2 1021.9 10.2
22/12:00pm 16.9 14.1 16.4 97 0.3 ESE 26 41 14 22 1022.4 1022.1 8.0
22/11:30am 17.1 12.4 16.8 98 0.2 E 37 56 20 30 1022.8 1022.5 7.2
22/11:20am 17.3 13.7 17.1 99 0.1 E 32 52 17 28 1022.9 1022.6 7.2
22/11:00am 16.8 14.9 16.6 99 0.1 SE 22 32 12 17 1023.3 1023.0 7.0
22/10:30am 16.3 14.1 16.0 98 0.2 SE 22 35 12 19 1023.2 1022.9 6.2
22/10:00am 16.7 15.1 16.4 98 0.2 SE 20 32 11 17 1023.3 1023.0 3.4
22/09:30am 16.3 14.0 15.8 97 0.3 SE 22 37 12 20 1023.1 1022.8 2.8
22/09:00am 16.5 14.9 15.9 96 0.4 SE 19 32 10 17 1023.2 1022.9 23.6
22/08:30am 16.3 14.6 15.7 96 0.4 SE 19 30 10 16 1023.3 1023.0 23.2
22/08:00am 16.1 14.4 15.8 98 0.2 SSE 19 33 10 18 1023.1 1022.8 23.2
22/07:30am 15.7 14.3 15.5 99 0.1 SE 17 30 9 16 1023.0 1022.7 23.0
22/07:00am 15.4 13.3 15.2 99 0.1 SE 20 32 11 17 1022.6 1022.3 22.8
22/06:30am 15.3 12.8 15.1 99 0.1 SE 22 35 12 19 1022.3 1022.0 21.4
22/06:00am 15.3 13.2 15.1 99 0.1 SE 20 32 11 17 1022.1 1021.8 19.6
22/05:30am 15.3 13.7 15.0 98 0.2 SE 17 28 9 15 1021.9 1021.6 18.6
22/05:00am 15.3 13.2 14.8 97 0.3 ESE 19 30 10 16 1021.8 1021.5 18.4
22/04:30am 15.3 13.0 14.7 96 0.3 SE 20 35 11 19 1021.3 1021.0 17.2
22/04:00am 15.6 13.2 14.5 93 0.6 SSE 20 33 11 18 1021.1 1020.8 16.0
22/03:30am 15.7 13.2 14.2 91 0.9 SSE 20 32 11 17 1021.0 1020.7 14.8
22/03:00am 16.2 13.3 14.0 87 1.2 SSE 22 37 12 20 1021.3 1021.0 14.2
22/02:30am 16.1 13.7 14.3 89 1.0 SSE 20 39 11 21 1021.7 1021.4 14.2
22/02:00am 16.2 13.7 14.0 87 1.2 SE 20 35 11 19 1022.1 1021.8 14.2
22/01:30am 16.2 13.2 13.7 85 1.4 SSE 22 37 12 20 1022.2 1021.9 14.2
22/01:00am 16.2 13.6 13.9 86 1.3 SSE 20 32 11 17 1022.5 1022.2 14.2
22/12:30am 16.1 13.9 14.3 89 1.0 SE 19 32 10 17 1023.0 1022.7 14.2
22/12:00am 16.1 13.5 13.9 87 1.2 SSE 20 33 11 18 1023.5 1023.2 14.2
 
Date/Time
EST
Temp
°C
App
Temp
°C
Dew
Point
Rel
Hum
%
Delta-T
°C
Wind Press
QNH
hPa
Press
MSL
hPa
Rain
since 9 am
mm
Dir
 
Spd
km/h
Gust
km/h
Spd
kts
Gust
kts
21/11:30pm 16.6 14.2 13.9 84 1.5 SSE 19 30 10 16 1023.6 1023.3 14.0
21/11:00pm 16.4 14.1 14.1 86 1.3 SSE 19 30 10 16 1023.7 1023.4 14.0
21/10:30pm 16.4 14.0 14.4 88 1.1 SSE 20 33 11 18 1023.8 1023.5 14.0
21/10:00pm 16.0 13.8 14.5 91 0.9 SSE 19 30 10 16 1023.9 1023.6 14.0
21/09:30pm 15.9 12.8 14.4 91 0.9 SE 24 35 13 19 1023.8 1023.5 13.8
21/09:00pm 15.8 13.5 14.7 93 0.6 SSE 20 30 11 16 1024.0 1023.7 13.8
21/08:30pm 15.6 14.4 15.0 96 0.3 S 15 28 8 15 1024.2 1023.9 13.6
21/08:00pm 15.3 13.8 14.2 93 0.6 SSE 15 22 8 12 1024.1 1023.8 13.2
21/07:30pm 15.2 13.3 14.1 93 0.6 SSE 17 24 9 13 1023.8 1023.5 12.6
21/07:00pm 15.6 12.6 14.8 95 0.5 SE 24 35 13 19 1023.6 1023.3 11.2
21/06:30pm 16.1 13.4 15.5 96 0.4 SE 24 35 13 19 1023.0 1022.7 9.2
21/06:00pm 16.3 14.1 14.8 91 0.9 SE 20 32 11 17 1022.6 1022.3 5.0
21/05:30pm 18.1 13.8 13.2 73 2.8 ESE 28 41 15 22 1022.1 1021.8 0.0
21/05:00pm 18.3 14.2 13.8 75 2.6 ESE 28 39 15 21 1021.4 1021.1 0.0
21/04:30pm 18.5 14.7 14.8 79 2.2 ESE 28 48 15 26 1021.0 1020.7 0.0
21/04:00pm 19.2 13.9 15.3 78 2.3 E 37 57 20 31 1020.6 1020.3 0.0
21/03:51pm 19.3 13.9 15.0 76 2.5 E 37 56 20 30 1020.6 1020.3 0.0
21/03:30pm 20.8 15.4 15.1 70 3.4 E 37 52 20 28 1020.5 1020.2 0.0
21/03:00pm 21.3 18.5 15.4 69 3.5 E 24 35 13 19 1020.6 1020.3 0.0
21/02:43pm 20.6 16.0 14.5 68 3.6 E 32 50 17 27 1020.9 1020.6 0.0
21/02:30pm 20.9 15.2 15.2 70 3.4 E 39 54 21 29 1020.9 1020.6 0.0
21/02:00pm 21.5 16.6 15.3 68 3.7 E 35 48 19 26 1020.9 1020.6 0.0
21/01:30pm 21.7 16.5 14.4 63 4.3 E 35 46 19 25 1021.3 1021.0 0.0
21/01:00pm 22.3 17.2 14.9 63 4.4 E 35 48 19 26 1021.4 1021.1 0.0
21/12:30pm 22.6 17.4 14.4 60 4.8 E 35 50 19 27 1021.7 1021.4 0.0
21/12:09pm 23.3 19.2 15.9 63 4.5 E 32 50 17 27 1021.8 1021.5 0.0
21/12:00pm 22.4 17.1 15.3 64 4.2 E 37 50 20 27 1021.8 1021.5 0.0
21/11:30am 22.4 17.6 15.7 66 4.0 E 35 48 19 26 1022.2 1021.9 0.0
21/11:00am 21.2 16.1 15.7 71 3.3 E 37 54 20 29 1022.6 1022.3 0.0
21/10:55am 21.8 17.3 14.9 65 4.1 ENE 32 52 17 28 1022.5 1022.2 0.0
21/10:30am 23.9 19.8 15.9 61 4.9 E 32 44 17 24 1022.9 1022.6 0.0
21/10:17am 22.7 18.6 14.8 61 4.7 E 30 48 16 26 1023.1 1022.8 0.0
21/10:00am 22.8 18.0 15.6 64 4.3 E 35 50 19 27 1023.2 1022.9 0.0
21/09:30am 22.0 18.5 15.4 66 3.9 E 28 46 15 25 1023.3 1023.0 0.0
21/09:29am 22.4 19.0 15.7 66 4.0 E 28 46 15 25 1023.3 1023.0 0.0
21/09:00am 21.3 17.0 15.4 69 3.5 E 32 46 17 25 1023.0 1022.7 0.2
21/08:30am 20.7 17.7 15.9 74 2.9 E 26 41 14 22 1023.2 1022.9 0.2
21/08:00am 19.3 17.1 16.0 81 2.0 ESE 22 35 12 19 1023.1 1022.8 0.2
21/07:30am 18.7 17.7 16.7 88 1.2 ESE 17 30 9 16 1022.7 1022.4 0.2
21/07:00am 17.5 15.8 15.7 89 1.1 SE 19 28 10 15 1022.4 1022.1 0.2
21/06:30am 17.4 14.7 15.6 89 1.1 SE 24 37 13 20 1021.9 1021.6 0.2
21/06:00am 17.5 16.2 15.8 90 1.0 ESE 17 26 9 14 1021.7 1021.4 0.2
21/05:30am 17.6 16.3 15.8 89 1.1 SE 17 28 9 15 1021.5 1021.2 0.2
21/05:00am 17.8 17.0 16.1 90 1.0 SE 15 22 8 12 1021.1 1020.8 0.2
21/04:30am 18.1 16.0 16.3 89 1.1 E 22 33 12 18 1020.5 1020.2 0.2
21/04:00am 18.1 16.5 16.6 91 0.9 ESE 20 32 11 17 1020.4 1020.1 0.2
21/03:30am 18.3 17.1 16.1 87 1.3 SE 17 24 9 13 1020.3 1020.0 0.0
21/03:00am 18.9 17.2 15.8 82 1.8 ESE 19 33 10 18 1020.1 1019.8 0.0
21/02:30am 19.8 18.3 15.4 76 2.6 ESE 17 28 9 15 1020.4 1020.1 0.0
21/02:00am 20.4 18.6 15.4 73 3.0 ENE 19 28 10 15 1020.5 1020.2 0.0
21/01:30am 20.2 18.7 15.2 73 3.0 NE 17 22 9 12 1020.9 1020.6 0.0
21/01:00am 20.5 19.1 15.5 73 3.0 ENE 17 24 9 13 1021.2 1020.9 0.0
21/12:30am 20.6 18.8 15.4 72 3.1 ENE 19 26 10 14 1021.3 1021.0 0.0
21/12:00am 20.8 19.3 15.4 71 3.2 ENE 17 24 9 13 1021.4 1021.1 0.0
 
Date/Time
EST
Temp
°C
App
Temp
°C
Dew
Point
Rel
Hum
%
Delta-T
°C
Wind Press
QNH
hPa
Press
MSL
hPa
Rain
since 9 am
mm
Dir
 
Spd
km/h
Gust
km/h
Spd
kts
Gust
kts
20/11:30pm 20.8 19.0 15.6 72 3.1 ENE 19 26 10 14 1021.4 1021.1 0.0
20/11:00pm 20.8 19.4 15.6 72 3.1 ENE 17 24 9 13 1021.3 1021.0 0.0
20/10:30pm 20.6 19.1 15.4 72 3.1 ENE 17 24 9 13 1021.2 1020.9 0.0
20/10:00pm 20.4 19.0 15.6 74 2.9 NE 17 24 9 13 1021.1 1020.8 0.0
20/09:30pm 20.4 19.5 15.8 75 2.8 NE 15 24 8 13 1021.1 1020.8 0.0
20/09:00pm 20.5 19.6 15.9 75 2.7 NE 15 22 8 12 1020.9 1020.6 0.0
20/08:30pm 20.6 19.8 16.0 75 2.8 NE 15 24 8 13 1020.6 1020.3 0.0
20/08:00pm 20.6 18.9 15.8 74 2.9 NE 19 26 10 14 1020.1 1019.8 0.0
20/07:30pm 20.7 19.1 15.9 74 2.9 ENE 19 24 10 13 1019.6 1019.3 0.0
20/07:00pm 20.6 18.6 14.9 70 3.4 NE 19 28 10 15 1019.1 1018.9 0.0
20/06:30pm 20.7 18.6 14.6 68 3.6 ENE 19 24 10 13 1018.8 1018.6 0.0
20/06:00pm 20.9 19.5 14.5 67 3.7 NE 15 20 8 11 1018.3 1018.1 0.0
20/05:30pm 21.4 19.0 13.8 62 4.4 NE 19 28 10 15 1017.7 1017.5 0.0
20/05:00pm 22.1 19.6 14.2 61 4.6 ENE 20 28 11 15 1017.5 1017.3 0.0
20/04:30pm 22.8 20.4 14.4 59 5.0 ENE 20 28 11 15 1017.0 1016.8 0.0
20/04:00pm 24.2 21.9 13.1 50 6.4 NE 17 26 9 14 1016.8 1016.6 0.0
20/03:30pm 24.4 22.0 13.9 52 6.2 NE 19 28 10 15 1016.6 1016.4 0.0
20/03:00pm 25.2 23.5 13.7 49 6.8 NE 15 22 8 12 1016.6 1016.4 0.0
20/02:30pm 26.1 25.2 14.9 50 6.8 NE 13 24 7 13 1016.8 1016.6 0.0
20/02:00pm 26.4 24.7 14.8 49 7.0 NE 17 28 9 15 1017.3 1017.1 0.0
20/01:30pm 26.7 25.0 14.8 48 7.2 NE 17 28 9 15 1017.6 1017.4 0.0
20/01:00pm 27.1 25.5 13.8 44 7.9 NE 15 28 8 15 1018.0 1017.8 0.0
20/12:30pm 27.8 26.0 14.4 43 8.1 NE 17 26 9 14 1018.3 1018.1 0.0
20/12:00pm 27.0 25.2 14.4 46 7.6 NE 17 28 9 15 1018.6 1018.4 0.0
20/11:30am 27.1 25.9 15.1 47 7.3 NE 15 22 8 12 1019.1 1018.9 0.0
20/11:00am 26.9 26.3 14.6 46 7.4 NE 11 19 6 10 1019.6 1019.3 0.0
20/10:30am 27.0 26.2 15.1 48 7.2 NE 13 22 7 12 1020.1 1019.8 0.0
20/10:00am 26.3 25.1 14.1 47 7.3 NE 13 19 7 10 1020.4 1020.1 0.0
20/09:30am 26.5 26.0 14.9 49 7.0 NE 11 17 6 9 1020.4 1020.1 0.0
20/09:00am 26.0 26.1 15.4 52 6.4 NE 9 17 5 9 1020.7 1020.4 0.0
20/08:30am 22.5 22.7 14.1 59 4.9 NE 6 11 3 6 1020.6 1020.3 0.0
20/08:00am 21.9 22.3 14.8 64 4.2 ENE 6 9 3 5 1020.4 1020.1 0.0
20/07:30am 20.3 21.4 14.7 70 3.3 ENE 2 6 1 3 1020.1 1019.8 0.0
20/07:00am 18.9 20.2 14.2 74 2.7 CALM 0 0 0 0 1019.7 1019.4 0.0
20/06:30am 18.6 19.9 14.1 75 2.6 CALM 0 0 0 0 1019.1 1018.9 0.0

Other Formats:

Comma delimited format used in spreadsheet applications
http://www.bom.gov.au/fwo/IDQ60801/IDQ60801.94380.axf

JavaScript Object Notation format (JSON) in row-major order
http://www.bom.gov.au/fwo/IDQ60801/IDQ60801.94380.json